createdAt,value
2022-09-07T00:09:12.268Z,8959.00781
2022-09-07T00:24:14.552Z,8832.21777
2022-09-07T00:39:17.187Z,7101.5293
2022-09-07T00:54:19.513Z,3230.6189
2022-09-07T01:09:21.803Z,2823.62183
2022-09-07T01:24:24.033Z,2353.22949
2022-09-07T01:39:26.323Z,1714.20593
2022-09-07T01:54:28.608Z,996.57239
2022-09-07T02:09:30.812Z,517.30475
2022-09-07T02:24:33.058Z,144.54103
2022-09-07T02:39:35.710Z,15.21485
2022-09-07T02:54:38.032Z,1.2679
2022-09-07T03:09:40.261Z,0
2022-09-07T03:24:42.495Z,0
2022-09-07T03:39:44.898Z,0
2022-09-07T03:54:47.357Z,0
2022-09-07T04:09:49.607Z,0
2022-09-07T04:24:51.874Z,0
2022-09-07T04:39:54.211Z,0
2022-09-07T04:54:56.548Z,0
2022-09-07T05:09:58.737Z,0
2022-09-07T05:25:00.952Z,0
2022-09-07T05:40:03.287Z,0
2022-09-07T05:55:28.129Z,0
2022-09-07T06:10:45.971Z,0
2022-09-07T06:25:48.271Z,0
2022-09-07T06:40:50.674Z,0
2022-09-07T06:55:53.056Z,0
2022-09-07T07:10:55.290Z,0
2022-09-07T07:25:57.564Z,0
2022-09-07T07:56:32.153Z,0
2022-09-07T08:11:34.512Z,0
2022-09-07T08:26:36.750Z,0
2022-09-07T08:41:38.955Z,0
2022-09-07T08:57:20.428Z,0
2022-09-07T09:12:23.247Z,0
2022-09-07T09:27:25.428Z,0
2022-09-07T09:42:27.858Z,0
2022-09-07T09:57:30.107Z,0
2022-09-07T10:12:32.323Z,0
2022-09-07T10:27:34.584Z,0
2022-09-07T10:42:36.864Z,0
2022-09-07T10:57:39.280Z,0
2022-09-07T11:12:41.670Z,0
2022-09-07T11:27:43.854Z,0
2022-09-07T11:42:46.087Z,0
2022-09-07T11:57:52.384Z,0
2022-09-07T12:12:57.175Z,0
2022-09-07T12:27:59.417Z,0
2022-09-07T12:43:09.527Z,2.53581
2022-09-07T12:58:12.352Z,43.10873
2022-09-07T13:13:14.657Z,259.92029
2022-09-07T13:28:17.257Z,802.58313
2022-09-07T13:43:19.484Z,2113.5957
2022-09-07T13:58:21.702Z,3276.26343
2022-09-07T14:13:23.936Z,6903.73633
2022-09-07T14:28:26.421Z,4294967296
2022-09-07T14:43:28.592Z,4294967296
2022-09-07T14:58:31.220Z,4294967296
2022-09-07T15:13:33.708Z,4294967296
2022-09-07T15:44:08.485Z,6432.07617
2022-09-07T15:59:10.735Z,4361.58887
2022-09-07T16:14:12.953Z,7412.16553
2022-09-07T16:29:15.299Z,7196.62207
2022-09-07T16:44:17.511Z,5468.46924
2022-09-07T16:59:19.743Z,5009.48779
2022-09-07T17:14:21.937Z,3536.18359
2022-09-07T17:29:24.166Z,4128.29492
2022-09-07T17:44:26.413Z,5058.93604
2022-09-07T18:15:01.323Z,5458.32568
2022-09-07T18:30:03.630Z,6207.65723
2022-09-07T18:45:28.978Z,5364.50098
2022-09-07T19:00:31.499Z,8368.16504
2022-09-07T19:15:36.828Z,8907.02441
2022-09-07T19:30:39.832Z,7176.33545
2022-09-07T19:45:42.085Z,9852.88086
2022-09-07T20:00:44.330Z,8941.25781
2022-09-07T20:15:46.674Z,7256.21338
2022-09-07T20:30:54.001Z,6123.97559
2022-09-07T20:45:56.191Z,5878.00195
2022-09-07T21:00:58.453Z,6333.17969
2022-09-07T21:16:00.777Z,8133.60303
2022-09-07T21:31:03.068Z,6187.37061
2022-09-07T21:46:08.012Z,7284.10742
2022-09-07T22:01:11.056Z,5993.38135
2022-09-07T22:16:13.344Z,4881.42969
2022-09-07T22:31:15.751Z,5989.57764
2022-09-07T22:46:18.175Z,6779.48145
2022-09-07T23:01:20.572Z,6364.87695
2022-09-07T23:16:22.840Z,5728.38916
2022-09-07T23:31:25.341Z,5505.23828
2022-09-07T23:46:27.716Z,5238.97852
